createdAt,value
2023-04-15T00:00:52.605Z,100021.71
2023-04-15T00:03:27.005Z,100024.30
2023-04-15T00:06:01.934Z,100029.59
2023-04-15T00:08:35.180Z,100031.41
2023-04-15T00:11:08.349Z,100038.89
2023-04-15T00:13:43.014Z,100038.89
2023-04-15T00:16:17.170Z,100035.00
2023-04-15T00:18:50.343Z,100032.00
2023-04-15T00:21:24.311Z,100037.70
2023-04-15T00:23:57.685Z,100033.92
2023-04-15T00:26:31.105Z,100041.03
2023-04-15T00:29:06.577Z,100043.03
2023-04-15T00:31:42.589Z,100043.14
2023-04-15T00:34:15.500Z,100044.24
2023-04-15T00:36:49.137Z,100050.47
2023-04-15T00:39:23.905Z,100059.66
2023-04-15T00:41:57.718Z,100058.84
2023-04-15T00:44:31.072Z,100056.24
2023-04-15T00:47:04.402Z,100060.03
2023-04-15T00:49:37.978Z,100057.11
2023-04-15T00:52:11.193Z,100054.92
2023-04-15T00:54:44.383Z,100064.30
2023-04-15T00:57:17.650Z,100065.48
2023-04-15T00:59:51.515Z,100065.68
2023-04-15T01:02:25.003Z,100069.83
2023-04-15T01:04:59.170Z,100077.40
2023-04-15T01:07:33.057Z,100077.18
2023-04-15T01:10:09.144Z,100086.26
2023-04-15T01:12:43.555Z,100085.88
2023-04-15T01:15:16.692Z,100081.59
2023-04-15T01:17:50.231Z,100089.18
2023-04-15T01:20:23.835Z,100089.70
2023-04-15T01:22:57.572Z,100091.52
2023-04-15T01:25:35.149Z,100092.41
2023-04-15T01:28:09.958Z,100093.30
2023-04-15T01:30:43.779Z,100088.81
2023-04-15T01:33:18.076Z,100086.88
2023-04-15T01:35:52.016Z,100096.63
2023-04-15T01:38:25.348Z,100101.34
2023-04-15T01:40:59.593Z,100098.90
2023-04-15T01:43:32.534Z,100098.90
2023-04-15T01:46:05.519Z,100105.89
2023-04-15T01:48:38.673Z,100101.78
2023-04-15T01:51:11.877Z,100102.38
2023-04-15T01:53:44.782Z,100102.16
2023-04-15T01:56:19.090Z,100104.12
2023-04-15T01:58:52.230Z,100092.86
2023-04-15T02:01:25.238Z,100097.23
2023-04-15T02:03:58.585Z,100105.83
2023-04-15T02:06:32.074Z,100107.27
2023-04-15T02:09:05.715Z,100109.52
2023-04-15T02:11:39.663Z,100115.34
2023-04-15T02:14:13.108Z,100117.64
2023-04-15T02:16:46.814Z,100117.27
2023-04-15T02:19:20.025Z,100118.94
2023-04-15T02:21:53.585Z,100123.64
2023-04-15T02:24:26.895Z,100123.01
2023-04-15T02:27:00.188Z,100124.42
2023-04-15T02:29:34.635Z,100122.45
2023-04-15T02:32:08.520Z,100126.16
2023-04-15T02:34:43.210Z,100125.75
2023-04-15T02:37:16.408Z,100126.68
2023-04-15T02:39:50.197Z,100137.94
2023-04-15T02:42:25.857Z,100141.83
2023-04-15T02:44:58.987Z,100147.66
2023-04-15T02:47:34.131Z,100152.32
2023-04-15T02:50:11.427Z,100153.50
2023-04-15T02:52:46.199Z,100159.98
2023-04-15T02:55:19.723Z,100170.06
2023-04-15T02:57:53.091Z,100172.77
2023-04-15T03:00:26.674Z,100176.41
2023-04-15T03:03:04.803Z,100177.89
2023-04-15T03:05:39.531Z,100177.89
2023-04-15T03:08:15.319Z,100180.23
2023-04-15T03:10:47.763Z,100187.20
2023-04-15T03:13:21.753Z,100192.13
2023-04-15T03:15:54.887Z,100204.02
2023-04-15T03:18:29.679Z,100205.43
2023-04-15T03:21:04.544Z,100213.59
2023-04-15T03:23:39.996Z,100223.19
2023-04-15T03:26:14.536Z,100223.70
2023-04-15T03:28:47.497Z,100227.71
2023-04-15T03:31:21.915Z,100234.19
2023-04-15T03:33:55.262Z,100232.90
2023-04-15T03:36:32.282Z,100234.74
2023-04-15T03:39:05.913Z,100237.11
2023-04-15T03:41:38.913Z,100240.83
2023-04-15T03:44:12.652Z,100244.72
2023-04-15T03:46:46.550Z,100243.27
2023-04-15T03:49:20.252Z,100249.17
2023-04-15T03:51:53.718Z,100249.52
2023-04-15T03:54:28.285Z,100252.33
2023-04-15T03:57:01.637Z,100258.75
2023-04-15T03:59:35.075Z,100260.69
2023-04-15T04:02:08.177Z,100256.91
2023-04-15T04:04:41.433Z,100263.39
2023-04-15T04:07:19.300Z,100267.63
2023-04-15T04:09:52.359Z,100259.95
2023-04-15T04:12:25.270Z,100260.55
2023-04-15T04:14:58.939Z,100259.13
2023-04-15T04:17:32.096Z,100262.44
2023-04-15T04:20:06.045Z,100268.26
2023-04-15T04:22:41.490Z,100263.95
2023-04-15T04:25:14.806Z,100262.55
2023-04-15T04:27:48.034Z,100261.44
2023-04-15T04:30:21.878Z,100265.06
2023-04-15T04:32:56.017Z,100272.11
2023-04-15T04:35:29.659Z,100272.11
2023-04-15T04:38:03.350Z,100275.86
2023-04-15T04:40:37.190Z,100280.79
2023-04-15T04:43:10.292Z,100277.41
2023-04-15T04:45:43.896Z,100276.71
2023-04-15T04:48:17.627Z,100282.65
2023-04-15T04:50:50.880Z,100286.88
2023-04-15T04:53:24.888Z,100288.39
2023-04-15T04:55:58.621Z,100296.78
2023-04-15T04:58:31.980Z,100292.73
2023-04-15T05:01:05.781Z,100291.77
2023-04-15T05:03:39.211Z,100299.48
2023-04-15T05:06:12.661Z,100303.49
2023-04-15T05:08:47.565Z,100313.29
2023-04-15T05:11:20.699Z,100308.05
2023-04-15T05:13:54.125Z,100313.73
2023-04-15T05:16:27.354Z,100318.44
2023-04-15T05:19:00.797Z,100325.16
2023-04-15T05:21:34.722Z,100328.54
2023-04-15T05:24:08.275Z,100330.36
2023-04-15T05:26:43.000Z,100327.02
2023-04-15T05:29:16.451Z,100330.17
2023-04-15T05:31:49.611Z,100332.17
2023-04-15T05:34:23.185Z,100336.55
2023-04-15T05:36:56.430Z,100344.56
2023-04-15T05:39:29.488Z,100344.56
2023-04-15T05:42:02.435Z,100345.98
2023-04-15T05:44:36.460Z,100349.88
2023-04-15T05:47:10.645Z,100354.18
2023-04-15T05:49:43.974Z,100355.19
2023-04-15T05:52:17.231Z,100345.83
2023-04-15T05:54:51.026Z,100348.65
2023-04-15T05:57:24.720Z,100357.45
2023-04-15T05:59:58.013Z,100365.45
2023-04-15T06:02:31.977Z,100376.48
2023-04-15T06:05:07.899Z,100379.37
2023-04-15T06:07:41.309Z,100384.02
2023-04-15T06:10:14.298Z,100391.52
2023-04-15T06:12:48.343Z,100397.13
2023-04-15T06:15:21.439Z,100393.00
2023-04-15T06:17:54.679Z,100402.20
2023-04-15T06:20:28.266Z,100407.63
2023-04-15T06:23:01.834Z,100405.25
2023-04-15T06:25:35.076Z,100407.55
2023-04-15T06:28:08.593Z,100413.37
2023-04-15T06:30:41.555Z,100417.50
2023-04-15T06:33:15.365Z,100416.91
2023-04-15T06:35:50.075Z,100414.27
2023-04-15T06:38:22.961Z,100424.81
2023-04-15T06:40:56.480Z,100414.77
2023-04-15T06:43:29.988Z,100412.41
2023-04-15T06:46:03.145Z,100420.86
2023-04-15T06:48:36.411Z,100430.40
2023-04-15T06:51:09.741Z,100436.49
2023-04-15T06:53:44.248Z,100444.81
2023-04-15T06:56:16.102Z,100446.63
2023-04-15T06:58:48.806Z,100461.94
2023-04-15T07:01:22.810Z,100451.84
2023-04-15T07:03:55.934Z,100462.94
2023-04-15T07:06:29.117Z,100461.38
2023-04-15T07:09:04.957Z,100466.58
2023-04-15T07:11:38.602Z,100464.23
2023-04-15T07:14:11.919Z,100466.70
2023-04-15T07:16:44.882Z,100470.06
2023-04-15T07:19:18.601Z,100469.73
2023-04-15T07:21:53.121Z,100473.26
2023-04-15T07:24:27.159Z,100469.73
2023-04-15T07:27:01.420Z,100463.64
2023-04-15T07:29:34.742Z,100467.46
2023-04-15T07:32:08.175Z,100465.19
2023-04-15T07:34:42.537Z,100463.54
2023-04-15T07:37:15.924Z,100474.86
2023-04-15T07:39:49.466Z,100475.52
2023-04-15T07:42:23.088Z,100474.25
2023-04-15T07:44:57.409Z,100466.41
2023-04-15T07:47:30.321Z,100476.84
2023-04-15T07:50:03.439Z,100477.78
2023-04-15T07:52:39.489Z,100478.20
2023-04-15T07:55:13.139Z,100487.33
2023-04-15T07:57:47.804Z,100482.06
2023-04-15T08:00:21.084Z,100489.47
2023-04-15T08:02:54.404Z,100491.19
2023-04-15T08:05:28.000Z,100491.42
2023-04-15T08:08:01.684Z,100491.96
2023-04-15T08:10:36.054Z,100491.64
2023-04-15T08:13:09.419Z,100486.62
2023-04-15T08:15:44.109Z,100491.23
2023-04-15T08:18:17.587Z,100486.94
2023-04-15T08:20:51.584Z,100492.63
2023-04-15T08:23:24.890Z,100493.35
2023-04-15T08:25:58.915Z,100498.24
2023-04-15T08:28:33.167Z,100500.36
2023-04-15T08:31:07.733Z,100501.96
2023-04-15T08:33:40.614Z,100496.96
2023-04-15T08:36:14.434Z,100500.06
2023-04-15T08:38:48.088Z,100503.55
2023-04-15T08:41:26.571Z,100495.94
2023-04-15T08:44:05.121Z,100500.76
2023-04-15T08:46:38.322Z,100499.22
2023-04-15T08:49:13.800Z,100499.43
2023-04-15T08:51:48.194Z,100499.73
2023-04-15T08:54:21.736Z,100487.35
2023-04-15T08:56:55.221Z,100492.35
2023-04-15T08:59:28.221Z,100490.35
2023-04-15T09:02:02.116Z,100497.57
2023-04-15T09:04:35.764Z,100501.58
2023-04-15T09:07:08.831Z,100499.48
2023-04-15T09:09:42.547Z,100494.23
2023-04-15T09:12:17.318Z,100495.42
2023-04-15T09:14:51.220Z,100500.84
2023-04-15T09:17:25.907Z,100501.86
2023-04-15T09:20:16.516Z,100511.02
2023-04-15T09:22:51.455Z,100504.20
2023-04-15T09:25:28.633Z,100505.70
2023-04-15T09:28:03.489Z,100517.20
2023-04-15T09:30:37.007Z,100516.28
2023-04-15T09:33:11.173Z,100519.05
2023-04-15T09:35:44.500Z,100525.64
2023-04-15T09:38:17.673Z,100530.77
2023-04-15T09:40:51.167Z,100529.75
2023-04-15T09:43:26.349Z,100533.73
2023-04-15T09:45:59.411Z,100535.86
2023-04-15T09:48:32.316Z,100539.90
2023-04-15T09:51:05.792Z,100528.95
2023-04-15T09:53:39.604Z,100542.89
2023-04-15T09:56:13.209Z,100533.50
2023-04-15T09:58:47.017Z,100534.20
2023-04-15T10:01:20.126Z,100531.79
2023-04-15T10:03:53.636Z,100538.89
2023-04-15T10:06:30.795Z,100541.47
2023-04-15T10:09:04.644Z,100546.56
2023-04-15T10:11:37.760Z,100546.84
2023-04-15T10:14:11.443Z,100551.94
2023-04-15T10:16:46.313Z,100557.25
2023-04-15T10:19:20.951Z,100548.71
2023-04-15T10:21:54.005Z,100545.36
2023-04-15T10:24:27.367Z,100543.13
2023-04-15T10:27:05.707Z,100532.37
2023-04-15T10:29:39.054Z,100536.06
2023-04-15T10:32:12.372Z,100540.77
2023-04-15T10:34:46.929Z,100540.25
2023-04-15T10:37:24.950Z,100538.52
2023-04-15T10:39:58.011Z,100540.25
2023-04-15T10:42:38.173Z,100542.68
2023-04-15T10:45:16.052Z,100546.48
2023-04-15T10:47:55.157Z,100545.58
2023-04-15T10:50:32.950Z,100545.30
2023-04-15T10:53:06.779Z,100544.17
2023-04-15T10:55:40.019Z,100551.69
2023-04-15T10:58:13.914Z,100563.27
2023-04-15T11:00:56.181Z,100551.84
2023-04-15T11:03:44.424Z,100566.92
2023-04-15T11:06:17.580Z,100569.95
2023-04-15T11:09:01.899Z,100564.44
2023-04-15T11:12:12.246Z,100570.38
2023-04-15T11:14:48.285Z,100580.25
2023-04-15T11:17:31.501Z,100576.37
2023-04-15T11:20:06.441Z,100574.37
2023-04-15T11:22:39.716Z,100569.33
2023-04-15T11:25:12.952Z,100572.13
2023-04-15T11:27:47.953Z,100570.08
2023-04-15T11:30:23.779Z,100570.08
2023-04-15T11:33:00.390Z,100572.66
2023-04-15T11:35:34.788Z,100567.71
2023-04-15T11:38:09.099Z,100564.77
2023-04-15T11:40:46.118Z,100573.73
2023-04-15T11:43:22.010Z,100575.78
2023-04-15T11:46:02.415Z,100570.64
2023-04-15T11:48:37.770Z,100581.80
2023-04-15T11:51:10.933Z,100578.91
2023-04-15T11:53:52.295Z,100583.63
2023-04-15T11:56:28.606Z,100580.31
2023-04-15T11:59:02.468Z,100581.30
2023-04-15T12:01:39.590Z,100587.73
2023-04-15T12:04:15.812Z,100590.25
2023-04-15T12:06:49.176Z,100587.45
2023-04-15T12:09:23.071Z,100587.07
2023-04-15T12:11:59.294Z,100589.59
2023-04-15T12:14:33.658Z,100586.50
2023-04-15T12:17:06.862Z,100597.18
2023-04-15T12:19:45.801Z,100595.97
2023-04-15T12:22:20.810Z,100597.47
2023-04-15T12:24:58.044Z,100601.63
2023-04-15T12:27:30.862Z,100595.01
2023-04-15T12:30:08.405Z,100598.13
2023-04-15T12:32:43.567Z,100600.33
2023-04-15T12:35:19.233Z,100593.61
2023-04-15T12:37:52.996Z,100599.41
2023-04-15T12:40:27.532Z,100598.52
2023-04-15T12:43:00.686Z,100598.70
2023-04-15T12:45:34.094Z,100594.35
2023-04-15T12:48:09.469Z,100596.73
2023-04-15T12:50:44.411Z,100591.26
2023-04-15T12:53:17.824Z,100591.30
2023-04-15T12:55:50.871Z,100592.28
2023-04-15T12:58:24.004Z,100593.78
2023-04-15T13:00:57.529Z,100601.55
2023-04-15T13:03:30.415Z,100600.47
2023-04-15T13:06:05.291Z,100597.16
2023-04-15T13:08:42.565Z,100597.16
2023-04-15T13:11:12.876Z,100597.45
2023-04-15T13:13:45.924Z,100594.69
2023-04-15T13:16:19.741Z,100593.32
2023-04-15T13:18:52.960Z,100599.80
2023-04-15T13:21:27.521Z,100607.73
2023-04-15T13:24:00.460Z,100608.27
2023-04-15T13:26:34.027Z,100619.86
2023-04-15T13:29:08.236Z,100623.19
2023-04-15T13:31:41.348Z,100626.81
2023-04-15T13:34:14.482Z,100622.19
2023-04-15T13:36:48.303Z,100619.38
2023-04-15T13:39:21.818Z,100628.73
2023-04-15T13:41:54.617Z,100626.72
2023-04-15T13:44:27.810Z,100624.33
2023-04-15T13:47:01.406Z,100626.94
2023-04-15T13:49:34.363Z,100632.47
2023-04-15T13:52:07.570Z,100629.66
2023-04-15T13:54:40.878Z,100623.83
2023-04-15T13:57:13.909Z,100629.37
2023-04-15T13:59:47.952Z,100633.97
2023-04-15T14:02:23.660Z,100636.89
2023-04-15T14:04:56.456Z,100643.73
2023-04-15T14:07:31.400Z,100647.03
2023-04-15T14:10:04.764Z,100657.37
2023-04-15T14:12:38.359Z,100649.03
2023-04-15T14:15:11.885Z,100647.24
2023-04-15T14:17:44.953Z,100654.88
2023-04-15T14:20:18.668Z,100661.70
2023-04-15T14:22:52.256Z,100657.08
2023-04-15T14:25:33.396Z,100659.06
2023-04-15T14:27:59.792Z,100655.56
2023-04-15T14:30:33.170Z,100654.27
2023-04-15T14:33:06.411Z,100660.27
2023-04-15T14:35:39.738Z,100653.44
2023-04-15T14:38:13.183Z,100648.43
2023-04-15T14:40:46.390Z,100649.43
2023-04-15T14:43:20.021Z,100664.49
2023-04-15T14:45:53.134Z,100659.14
2023-04-15T14:48:27.108Z,100665.77
2023-04-15T14:51:01.044Z,100670.77
2023-04-15T14:53:34.396Z,100672.38
2023-04-15T14:56:08.264Z,100675.19
2023-04-15T14:58:41.345Z,100679.27
2023-04-15T15:01:15.263Z,100680.25
2023-04-15T15:03:49.465Z,100673.52
2023-04-15T15:06:22.901Z,100667.92
2023-04-15T15:08:56.268Z,100659.06
2023-04-15T15:11:30.079Z,100668.50
2023-04-15T15:14:03.148Z,100663.59
2023-04-15T15:16:36.363Z,100670.27
2023-04-15T15:19:09.279Z,100678.70
2023-04-15T15:21:42.561Z,100682.39
2023-04-15T15:24:15.679Z,100685.23
2023-04-15T15:26:48.781Z,100689.14
2023-04-15T15:29:21.965Z,100698.08
2023-04-15T15:31:54.703Z,100693.95
2023-04-15T15:34:28.476Z,100692.13
2023-04-15T15:37:02.395Z,100687.91
2023-04-15T15:39:37.111Z,100688.58
2023-04-15T15:42:11.672Z,100688.26
2023-04-15T15:44:44.731Z,100690.86
2023-04-15T15:47:21.308Z,100686.95
2023-04-15T15:49:54.905Z,100690.57
2023-04-15T15:52:27.806Z,100691.24
2023-04-15T15:55:01.095Z,100683.73
2023-04-15T15:57:34.244Z,100683.10
2023-04-15T16:00:12.171Z,100685.90
2023-04-15T16:05:17.915Z,100693.27
2023-04-15T16:07:51.147Z,100698.48
2023-04-15T16:10:24.121Z,100693.64
2023-04-15T16:12:57.400Z,100698.37
2023-04-15T16:15:31.115Z,100702.47
2023-04-15T16:18:04.331Z,100701.61
2023-04-15T16:20:37.968Z,100703.48
2023-04-15T16:23:18.240Z,100706.08
2023-04-15T16:25:52.411Z,100709.09
2023-04-15T16:28:26.857Z,100717.80
2023-04-15T16:31:00.282Z,100722.74
2023-04-15T16:33:33.560Z,100728.95
2023-04-15T16:36:07.124Z,100728.84
2023-04-15T16:38:39.705Z,100732.53
2023-04-15T16:41:12.609Z,100740.11
2023-04-15T16:43:46.203Z,100738.06
2023-04-15T16:46:19.350Z,100745.28
2023-04-15T16:48:52.433Z,100751.56
2023-04-15T16:51:26.235Z,100757.55
2023-04-15T16:53:59.300Z,100766.66
2023-04-15T16:56:32.402Z,100754.83
2023-04-15T16:59:05.437Z,100760.04
2023-04-15T17:01:40.480Z,100758.73
2023-04-15T17:04:13.649Z,100765.13
2023-04-15T17:06:48.243Z,100768.03
2023-04-15T17:09:22.694Z,100775.09
2023-04-15T17:11:56.385Z,100781.36
2023-04-15T17:14:30.208Z,100781.36
2023-04-15T17:17:04.182Z,100791.00
2023-04-15T17:19:38.051Z,100795.66
2023-04-15T17:22:11.302Z,100796.44
2023-04-15T17:24:44.259Z,100796.20
2023-04-15T17:27:17.553Z,100810.52
2023-04-15T17:29:50.398Z,100807.80
2023-04-15T17:32:23.754Z,100812.59
2023-04-15T17:34:56.662Z,100813.53
2023-04-15T17:37:29.879Z,100821.56
2023-04-15T17:40:03.136Z,100823.65
2023-04-15T17:42:36.877Z,100828.56
2023-04-15T17:45:11.022Z,100830.27
2023-04-15T17:47:44.290Z,100833.42
2023-04-15T17:50:17.678Z,100836.20
2023-04-15T17:52:51.988Z,100841.03
2023-04-15T17:55:25.268Z,100844.82
2023-04-15T17:57:58.272Z,100847.54
2023-04-15T18:00:31.259Z,100851.93
2023-04-15T18:03:04.711Z,100851.81
2023-04-15T18:05:37.973Z,100859.13
2023-04-15T18:08:11.348Z,100860.69
2023-04-15T18:10:44.099Z,100867.60
2023-04-15T18:13:17.031Z,100862.69
2023-04-15T18:15:51.518Z,100862.16
2023-04-15T18:18:23.595Z,100861.41
2023-04-15T18:20:56.343Z,100871.70
2023-04-15T18:23:30.108Z,100867.96
2023-04-15T18:26:03.837Z,100867.73
2023-04-15T18:28:38.252Z,100863.94
2023-04-15T18:31:11.739Z,100866.02
2023-04-15T18:33:45.050Z,100873.45
2023-04-15T18:36:18.320Z,100870.05
2023-04-15T18:38:51.732Z,100869.67
2023-04-15T18:41:26.417Z,100872.39
2023-04-15T18:44:00.289Z,100869.38
2023-04-15T18:46:33.524Z,100869.50
2023-04-15T18:49:07.098Z,100866.38
2023-04-15T18:51:42.010Z,100866.26
2023-04-15T18:54:15.381Z,100869.15
2023-04-15T18:56:48.824Z,100863.34
2023-04-15T18:59:29.497Z,100867.66
2023-04-15T19:01:58.878Z,100855.83
2023-04-15T19:04:31.939Z,100852.95
2023-04-15T19:07:05.225Z,100843.84
2023-04-15T19:09:38.450Z,100848.92
2023-04-15T19:12:11.440Z,100854.58
2023-04-15T19:14:45.987Z,100851.74
2023-04-15T19:17:19.364Z,100854.59
2023-04-15T19:19:52.551Z,100859.31
2023-04-15T19:22:25.929Z,100855.90
2023-04-15T19:24:58.854Z,100862.15
2023-04-15T19:27:32.015Z,100864.63
2023-04-15T19:30:05.959Z,100863.21
2023-04-15T19:32:40.464Z,100866.06
2023-04-15T19:35:13.746Z,100861.95
2023-04-15T19:37:48.129Z,100864.93
2023-04-15T19:40:21.119Z,100864.03
2023-04-15T19:42:54.126Z,100865.73
2023-04-15T19:45:27.345Z,100855.59
2023-04-15T19:48:00.431Z,100859.77
2023-04-15T19:50:34.357Z,100861.48
2023-04-15T19:53:07.340Z,100864.25
2023-04-15T19:55:41.133Z,100874.70
2023-04-15T19:58:14.205Z,100870.55
2023-04-15T20:00:47.636Z,100875.34
2023-04-15T20:03:21.119Z,100871.33
2023-04-15T20:05:54.434Z,100867.83
2023-04-15T20:08:27.613Z,100873.16
2023-04-15T20:11:01.867Z,100868.36
2023-04-15T20:13:35.022Z,100869.54
2023-04-15T20:16:08.049Z,100868.36
2023-04-15T20:18:41.715Z,100868.93
2023-04-15T20:21:14.622Z,100865.28
2023-04-15T20:23:47.669Z,100859.19
2023-04-15T20:26:21.825Z,100868.28
2023-04-15T20:28:55.823Z,100859.84
2023-04-15T20:31:29.055Z,100862.72
2023-04-15T20:34:02.016Z,100857.28
2023-04-15T20:36:35.990Z,100859.50
2023-04-15T20:39:08.951Z,100852.89
2023-04-15T20:41:41.912Z,100855.73
2023-04-15T20:44:15.111Z,100861.21
2023-04-15T20:46:48.179Z,100864.86
2023-04-15T20:49:21.276Z,100855.24
2023-04-15T20:51:54.229Z,100863.04
2023-04-15T20:54:27.192Z,100862.52
2023-04-15T20:57:01.730Z,100855.24
2023-04-15T20:59:35.110Z,100853.41
2023-04-15T21:02:08.383Z,100856.66
2023-04-15T21:04:41.820Z,100855.64
2023-04-15T21:07:15.289Z,100859.30
2023-04-15T21:09:49.572Z,100866.56
2023-04-15T21:12:22.731Z,100873.06
2023-04-15T21:14:55.929Z,100882.97
2023-04-15T21:17:29.041Z,100882.44
2023-04-15T21:20:02.537Z,100880.61
2023-04-15T21:22:36.173Z,100879.72
2023-04-15T21:25:10.262Z,100887.02
2023-04-15T21:27:43.708Z,100885.19
2023-04-15T21:30:16.603Z,100889.37
2023-04-15T21:32:49.770Z,100889.86
2023-04-15T21:35:23.112Z,100897.53
2023-04-15T21:37:56.290Z,100906.78
2023-04-15T21:40:29.432Z,100902.91
2023-04-15T21:43:02.417Z,100901.23
2023-04-15T21:45:36.821Z,100904.63
2023-04-15T21:48:09.692Z,100901.13
2023-04-15T21:50:43.330Z,100898.28
2023-04-15T21:53:16.755Z,100900.63
2023-04-15T21:55:49.562Z,100904.80
2023-04-15T21:58:22.801Z,100902.84
2023-04-15T22:01:00.272Z,100908.31
2023-04-15T22:03:36.028Z,100907.93
2023-04-15T22:06:09.157Z,100915.34
2023-04-15T22:08:54.925Z,100917.02
2023-04-15T22:11:26.618Z,100912.73
2023-04-15T22:14:01.033Z,100910.29
2023-04-15T22:16:35.634Z,100911.33
2023-04-15T22:19:08.589Z,100912.09
2023-04-15T22:21:41.783Z,100911.56
2023-04-15T22:24:38.868Z,100895.09
2023-04-15T22:26:49.676Z,100904.45
2023-04-15T22:29:23.449Z,100910.28
2023-04-15T22:31:56.650Z,100903.94
2023-04-15T22:34:29.531Z,100911.83
2023-04-15T22:37:02.610Z,100911.61
2023-04-15T22:39:35.982Z,100912.24
2023-04-15T22:42:08.985Z,100911.72
2023-04-15T22:44:42.083Z,100910.69
2023-04-15T22:47:14.963Z,100906.94
2023-04-15T22:49:47.964Z,100912.77
2023-04-15T22:52:30.025Z,100913.40
2023-04-15T22:54:56.205Z,100917.16
2023-04-15T22:57:30.767Z,100912.77
2023-04-15T23:00:04.665Z,100913.13
2023-04-15T23:02:37.922Z,100914.20
2023-04-15T23:05:12.952Z,100920.56
2023-04-15T23:07:46.813Z,100927.81
2023-04-15T23:10:20.395Z,100927.95
2023-04-15T23:12:53.590Z,100921.07
2023-04-15T23:15:26.904Z,100928.45
2023-04-15T23:18:00.785Z,100931.28
2023-04-15T23:20:34.216Z,100935.44
2023-04-15T23:23:07.504Z,100943.08
2023-04-15T23:25:40.585Z,100941.16
2023-04-15T23:28:13.581Z,100943.98
2023-04-15T23:30:46.815Z,100940.89
2023-04-15T23:33:20.829Z,100943.08
2023-04-15T23:35:53.754Z,100937.77
2023-04-15T23:38:26.908Z,100944.78
2023-04-15T23:41:00.773Z,100946.84
2023-04-15T23:43:34.114Z,100946.44
2023-04-15T23:46:07.127Z,100953.32
2023-04-15T23:48:42.112Z,100949.30
2023-04-15T23:51:15.014Z,100959.27
2023-04-15T23:53:48.061Z,100956.31
2023-04-15T23:56:21.296Z,100954.22
2023-04-15T23:58:54.247Z,100951.89
